Time;durP1;ratioP1;P1;durP2;ratioP2;P2;SDS_P1;SDS_P2;PMS_P1;PMS_P2;Temp;Humidity;BMP_temperature;BMP_pressure;BME280_temperature;BME280_humidity;BME280_pressure;Samples;Min_cycle;Max_cycle;Signal;HPM_P1;HPM_P2
2021/07/26 00:01:29;;;;;;;19.37;16.52;;;;;;;18.77;77.06;99552.44;1741900;82;21471;-83
2021/07/26 00:03:56;;;;;;;19.35;17.27;;;;;;;18.77;77.46;99547.61;1741878;82;21516;-83
2021/07/26 00:06:21;;;;;;;22.10;16.48;;;;;;;18.76;77.07;99547.30;1743871;82;20958;-83
2021/07/26 00:08:51;;;;;;;18.25;16.02;;;;;;;18.76;77.06;99544.62;1748122;81;20978;-84
2021/07/26 00:11:17;;;;;;;19.92;17.15;;;;;;;18.77;77.37;99547.61;1748062;82;20970;-84
2021/07/26 00:13:43;;;;;;;19.98;16.95;;;;;;;18.75;77.39;99545.09;1750294;81;20964;-83
2021/07/26 00:16:09;;;;;;;17.80;15.90;;;;;;;18.74;77.49;99538.93;1742012;82;21026;-83
2021/07/26 00:18:35;;;;;;;20.23;18.00;;;;;;;18.72;77.37;99532.95;1741753;82;21005;-83
2021/07/26 00:21:02;;;;;;;18.20;16.17;;;;;;;18.70;77.42;99531.44;1741749;82;20965;-83
2021/07/26 00:23:29;;;;;;;21.15;17.10;;;;;;;18.68;77.43;99528.94;1743952;81;21016;-83
2021/07/26 00:25:55;;;;;;;18.48;15.98;;;;;;;18.66;77.55;99526.97;1747513;82;20985;-83
2021/07/26 00:28:21;;;;;;;19.25;16.32;;;;;;;18.66;77.40;99521.63;1742066;82;21057;-83
2021/07/26 00:30:47;;;;;;;17.70;15.90;;;;;;;18.64;77.46;99522.30;1741778;82;21069;-83
2021/07/26 00:34:10;;;;;;;19.27;16.75;;;;;;;18.64;77.61;99524.98;1741650;82;20965;-83
2021/07/26 00:36:52;;;;;;;19.82;17.10;;;;;;;18.65;77.66;99526.63;1741853;82;21481;-84
2021/07/26 00:39:26;;;;;;;19.07;16.82;;;;;;;18.63;77.80;99527.34;1741119;82;21635;-83
2021/07/26 00:41:53;;;;;;;18.85;16.07;;;;;;;18.62;77.89;99530.17;1743304;81;21026;-84
2021/07/26 00:44:23;;;;;;;17.20;15.48;;;;;;;18.60;77.84;99527.70;1718547;83;21508;-84
2021/07/26 00:46:51;;;;;;;18.98;16.97;;;;;;;18.60;77.98;99530.88;1731808;82;21053;-84
2021/07/26 00:49:19;;;;;;;19.60;17.07;;;;;;;18.59;77.96;99528.72;1743262;82;20997;-83
2021/07/26 00:51:52;;;;;;;21.20;16.95;;;;;;;18.59;78.12;99527.86;1741684;82;21449;-84
2021/07/26 00:54:21;;;;;;;17.95;16.12;;;;;;;18.45;78.45;99508.97;1741550;82;21023;-84
2021/07/26 00:56:49;;;;;;;23.87;17.70;;;;;;;18.45;78.21;99503.63;1741858;82;20961;-84
2021/07/26 00:59:16;;;;;;;17.75;15.95;;;;;;;18.56;78.52;99527.75;1743783;82;20958;-83
2021/07/26 01:01:42;;;;;;;19.07;17.07;;;;;;;18.55;78.46;99529.25;1746304;81;20953;-84
2021/07/26 01:04:09;;;;;;;18.55;16.60;;;;;;;18.54;78.52;99520.41;1747764;82;21017;-83
2021/07/26 01:06:35;;;;;;;17.45;15.65;;;;;;;18.55;78.59;99521.23;1748338;81;20994;-84
2021/07/26 01:09:02;;;;;;;17.30;15.45;;;;;;;18.52;78.29;99515.74;1743845;81;20938;-84
2021/07/26 01:11:29;;;;;;;20.92;17.32;;;;;;;18.53;78.69;99513.92;1748202;81;21022;-84
2021/07/26 01:13:56;;;;;;;18.73;16.67;;;;;;;18.52;78.76;99510.40;1748255;81;20982;-84
2021/07/26 01:16:23;;;;;;;19.10;16.35;;;;;;;18.51;78.65;99510.09;1748243;82;21030;-84
2021/07/26 01:18:50;;;;;;;18.57;16.57;;;;;;;18.50;78.72;99523.95;1748024;81;21400;-84
2021/07/26 01:21:19;;;;;;;19.80;16.62;;;;;;;18.50;78.93;99529.80;1748270;81;21058;-83
2021/07/26 01:23:48;;;;;;;17.98;16.15;;;;;;;18.49;78.96;99526.79;1748244;81;21052;-84
2021/07/26 01:26:20;;;;;;;18.37;16.57;;;;;;;18.49;79.42;99518.78;1748289;81;21547;-84
2021/07/26 01:28:55;;;;;;;20.80;17.87;;;;;;;18.50;79.52;99521.80;1745460;81;21004;-84
2021/07/26 01:31:22;;;;;;;20.05;17.25;;;;;;;18.48;79.16;99517.95;1743219;82;20989;-84
2021/07/26 01:33:49;;;;;;;20.08;17.90;;;;;;;18.50;79.20;99517.78;1742392;82;20981;-84
2021/07/26 01:36:16;;;;;;;19.70;17.60;;;;;;;18.31;79.28;99484.41;1742003;82;21017;-83
2021/07/26 01:38:45;;;;;;;20.48;17.48;;;;;;;18.50;79.34;99511.11;1741750;82;20982;-83
2021/07/26 01:41:17;;;;;;;19.62;17.42;;;;;;;18.48;79.33;99504.59;1742037;82;21052;-83
2021/07/26 01:43:51;;;;;;;22.15;19.85;;;;;;;18.49;79.48;99506.27;1741119;82;21021;-84
2021/07/26 01:46:48;;;;;;;22.58;18.75;;;;;;;18.47;79.67;99505.62;1740147;82;21046;-83
2021/07/26 01:49:45;;;;;;;21.45;17.45;;;;;;;18.47;79.67;99505.62;1754442;80;20981;-83
2021/07/26 01:52:13;;;;;;;18.75;16.70;;;;;;;18.46;79.73;99502.62;1782588;80;20953;-83
2021/07/26 01:54:39;;;;;;;19.27;16.40;;;;;;;18.45;79.96;99508.97;1746905;80;20989;-83
2021/07/26 01:57:06;;;;;;;20.97;18.65;;;;;;;18.34;79.97;99485.89;1741732;82;21519;-83
2021/07/26 01:59:32;;;;;;;19.37;17.27;;;;;;;18.44;80.41;99511.83;1742080;82;21052;-83
2021/07/26 02:01:58;;;;;;;19.35;17.32;;;;;;;18.31;80.40;99491.59;1741734;82;21452;-83
2021/07/26 02:04:24;;;;;;;18.98;17.07;;;;;;;18.44;80.62;99522.52;1742215;82;20980;-83
2021/07/26 02:06:50;;;;;;;21.17;16.93;;;;;;;18.43;80.25;99528.87;1756014;81;20969;-83
2021/07/26 02:09:16;;;;;;;19.37;16.32;;;;;;;18.43;80.46;99531.04;1755619;81;21004;-83
2021/07/26 02:11:41;;;;;;;21.52;18.32;;;;;;;18.44;80.46;99531.86;1741715;82;21513;-83
2021/07/26 02:14:10;;;;;;;20.43;18.30;;;;;;;18.46;80.58;99527.19;1742045;82;20934;-83
2021/07/26 02:16:38;;;;;;;18.85;16.17;;;;;;;18.47;80.57;99530.99;1744550;81;21022;-84
2021/07/26 02:19:05;;;;;;;20.17;17.25;;;;;;;18.48;80.67;99527.81;1744961;82;21020;-83
2021/07/26 02:21:32;;;;;;;19.67;16.97;;;;;;;18.49;80.93;99531.66;1741836;82;21053;-84
2021/07/26 02:23:58;;;;;;;22.58;17.67;;;;;;;18.46;81.12;99526.67;1742961;82;21535;-83
2021/07/26 02:26:23;;;;;;;21.30;16.93;;;;;;;18.46;81.12;99533.35;1748439;81;20965;-83
2021/07/26 02:28:50;;;;;;;19.02;16.90;;;;;;;18.47;81.14;99536.84;1747564;81;21050;-83
2021/07/26 02:31:16;;;;;;;20.70;17.07;;;;;;;18.46;81.07;99545.37;1748201;82;20986;-84
2021/07/26 02:33:42;;;;;;;22.40;17.40;;;;;;;18.38;81.06;99524.57;1747994;81;21109;-84
2021/07/26 02:36:08;;;;;;;19.87;17.75;;;;;;;18.49;81.17;99544.16;1748028;81;20969;-84
2021/07/26 02:38:34;;;;;;;22.40;17.90;;;;;;;18.47;80.96;99548.36;1741966;82;20942;-84
2021/07/26 02:41:14;;;;;;;19.00;17.00;;;;;;;18.47;81.12;99555.55;1741976;82;21081;-83
2021/07/26 02:43:41;;;;;;;20.88;16.07;;;;;;;18.46;81.15;99567.25;1741870;82;21596;-84
2021/07/26 02:46:10;;;;;;;20.72;17.00;;;;;;;18.44;81.39;99574.60;1746684;82;21021;-84
2021/07/26 02:48:38;;;;;;;21.62;17.57;;;;;;;18.44;81.39;99574.60;1748164;82;20943;-84
2021/07/26 02:51:04;;;;;;;19.92;17.82;;;;;;;18.42;81.51;99557.91;1748129;82;21033;-84
2021/07/26 02:53:30;;;;;;;21.00;17.15;;;;;;;18.42;81.45;99555.24;1748194;82;20970;-84
2021/07/26 02:55:56;;;;;;;19.82;16.62;;;;;;;18.42;81.65;99556.58;1741729;82;21041;-84
2021/07/26 02:58:22;;;;;;;19.05;16.77;;;;;;;18.42;81.67;99552.58;1741789;82;21017;-84
2021/07/26 03:00:50;;;;;;;19.57;17.57;;;;;;;18.42;81.75;99543.22;1742099;82;20985;-84
2021/07/26 03:03:16;;;;;;;18.20;16.25;;;;;;;18.42;81.73;99540.55;1750776;81;20944;-84
2021/07/26 03:05:42;;;;;;;22.27;17.73;;;;;;;18.30;81.91;99517.47;1743932;81;20997;-84
2021/07/26 03:08:08;;;;;;;20.00;17.02;;;;;;;18.30;81.91;99517.47;1741802;82;21037;-84
2021/07/26 03:10:35;;;;;;;19.82;17.73;;;;;;;18.43;81.82;99530.22;1742014;82;20981;-83
2021/07/26 03:13:01;;;;;;;18.48;16.55;;;;;;;18.33;81.79;99509.11;1744374;82;20965;-84
2021/07/26 03:15:27;;;;;;;22.27;17.32;;;;;;;18.33;81.79;99509.11;1745389;82;21504;-84
2021/07/26 03:17:52;;;;;;;22.77;18.20;;;;;;;18.47;81.98;99527.50;1746324;82;20966;-84
2021/07/26 03:20:19;;;;;;;26.05;16.32;;;;;;;18.48;82.02;99534.48;1748052;82;21085;-84
2021/07/26 03:23:00;;;;;;;19.82;17.80;;;;;;;18.48;81.91;99529.14;1748114;82;20998;-83
2021/07/26 03:25:29;;;;;;;19.40;17.30;;;;;;;18.48;82.10;99529.14;1748406;82;21540;-85
2021/07/26 03:27:56;;;;;;;19.73;17.73;;;;;;;18.47;82.53;99539.52;1748068;81;21390;-83
2021/07/26 03:30:23;;;;;;;21.55;18.23;;;;;;;18.47;82.53;99539.52;1748196;81;21049;-82
2021/07/26 03:32:49;;;;;;;18.27;16.35;;;;;;;18.46;82.52;99542.70;1762735;81;21447;-82
2021/07/26 03:35:17;;;;;;;20.65;15.53;;;;;;;18.46;82.52;99542.70;1752332;81;21017;-82
2021/07/26 03:37:43;;;;;;;17.80;15.93;;;;;;;18.47;82.68;99540.34;1747537;81;21009;-83
2021/07/26 03:40:10;;;;;;;18.57;16.57;;;;;;;18.47;82.68;99540.34;1748123;81;21001;-83
2021/07/26 03:42:38;;;;;;;19.90;17.32;;;;;;;18.49;82.77;99545.48;1748064;81;20971;-83
2021/07/26 03:45:06;;;;;;;20.50;17.95;;;;;;;18.49;82.80;99541.48;1745450;82;21042;-83
2021/07/26 03:47:32;;;;;;;20.05;18.02;;;;;;;18.44;83.21;99528.68;1746796;82;21031;-83
2021/07/26 03:49:58;;;;;;;22.10;18.90;;;;;;;18.51;83.16;99538.14;1748078;82;20989;-83
2021/07/26 03:52:25;;;;;;;22.87;18.52;;;;;;;18.51;83.16;99538.14;1747881;82;20995;-82
2021/07/26 03:54:56;;;;;;;18.67;16.73;;;;;;;18.39;82.97;99527.56;1748373;82;21433;-83
2021/07/26 03:57:23;;;;;;;19.43;17.33;;;;;;;18.39;82.97;99527.56;1748218;81;21017;-84
2021/07/26 03:59:49;;;;;;;19.52;16.95;;;;;;;18.51;82.79;99550.98;1753187;81;21535;-84
2021/07/26 04:02:15;;;;;;;18.92;16.93;;;;;;;18.54;82.65;99542.30;1744930;81;20950;-84
2021/07/26 04:04:42;;;;;;;19.55;16.85;;;;;;;18.55;82.93;99530.59;1741964;82;20981;-84
2021/07/26 04:07:15;;;;;;;19.27;17.48;;;;;;;18.57;82.93;99529.40;1741840;82;21469;-84
2021/07/26 04:09:43;;;;;;;18.75;16.55;;;;;;;18.60;83.16;99533.05;1740696;82;21522;-84
2021/07/26 04:12:09;;;;;;;21.70;17.50;;;;;;;18.49;82.95;99517.44;1745467;82;21077;-84
2021/07/26 04:14:41;;;;;;;20.25;18.07;;;;;;;18.49;82.95;99517.44;1747354;81;21017;-84
2021/07/26 04:17:03;;;;;;;21.87;18.25;;;;;;;18.62;83.17;99543.53;1742210;81;21017;-84
2021/07/26 04:19:30;;;;;;;22.48;17.42;;;;;;;18.61;83.12;99548.05;1742135;82;21004;-84
2021/07/26 04:21:59;;;;;;;20.15;17.15;;;;;;;18.62;83.16;99554.22;1757073;81;21017;-84
2021/07/26 04:24:26;;;;;;;28.00;18.25;;;;;;;18.65;83.62;99550.67;1742497;82;20961;-84
2021/07/26 04:26:53;;;;;;;22.95;18.62;;;;;;;18.65;83.62;99550.67;1741836;82;20994;-84
2021/07/26 04:29:19;;;;;;;20.75;18.52;;;;;;;18.66;83.52;99560.38;1748312;81;21017;-90
2021/07/26 04:31:47;;;;;;;23.80;19.50;;;;;;;18.66;83.52;99560.38;1748405;81;21042;-92
2021/07/26 04:34:13;;;;;;;23.07;18.23;;;;;;;18.67;84.12;99568.70;1746591;82;20968;-90
2021/07/26 04:36:39;;;;;;;27.55;19.02;;;;;;;18.67;84.05;99570.04;1742204;82;21049;-90
2021/07/26 04:39:05;;;;;;;23.60;18.67;;;;;;;18.69;84.08;99574.70;1742383;82;21037;-90
2021/07/26 04:41:33;;;;;;;20.85;18.05;;;;;;;18.71;84.08;99579.34;1742079;82;21298;-90
2021/07/26 04:43:59;;;;;;;21.02;18.73;;;;;;;18.73;84.00;99580.03;1742179;82;21035;-89
2021/07/26 04:46:25;;;;;;;23.30;19.65;;;;;;;18.73;84.00;99569.34;1745238;82;20942;-89
2021/07/26 04:48:51;;;;;;;20.77;17.82;;;;;;;18.73;84.00;99569.34;1748516;81;20959;-90
2021/07/26 04:51:17;;;;;;;20.35;18.20;;;;;;;18.77;84.18;99567.65;1744411;82;20969;-90
2021/07/26 04:53:43;;;;;;;21.82;18.12;;;;;;;18.81;84.21;99572.95;1744372;82;21503;-90
2021/07/26 04:56:09;;;;;;;20.30;18.10;;;;;;;18.84;84.14;99569.91;1743121;82;20985;-90
2021/07/26 04:58:35;;;;;;;20.37;18.00;;;;;;;18.87;84.10;99566.36;1762488;80;20953;-89
2021/07/26 05:01:01;;;;;;;20.40;18.25;;;;;;;18.87;84.12;99566.36;1756566;80;20950;-89
2021/07/26 05:03:27;;;;;;;23.67;18.80;;;;;;;18.89;84.23;99560.84;1763985;81;20961;-90
2021/07/26 05:05:53;;;;;;;23.60;18.60;;;;;;;18.93;84.13;99564.80;1764219;81;20985;-90
2021/07/26 05:08:19;;;;;;;19.40;17.35;;;;;;;18.98;84.37;99566.41;1763974;81;21068;-90
2021/07/26 05:10:47;;;;;;;22.13;17.73;;;;;;;19.03;84.68;99560.02;1764212;81;21021;-90
2021/07/26 05:13:16;;;;;;;23.18;19.50;;;;;;;19.06;84.73;99562.31;1763727;81;21005;-90
2021/07/26 05:15:42;;;;;;;20.90;18.17;;;;;;;19.10;84.29;99574.30;1753381;81;21452;-90
2021/07/26 05:18:08;;;;;;;21.45;17.85;;;;;;;19.13;84.26;99573.92;1748570;82;20958;-89
2021/07/26 05:20:34;;;;;;;22.90;19.02;;;;;;;19.15;84.51;99571.91;1748702;82;21463;-90
2021/07/26 05:23:00;;;;;;;24.55;19.73;;;;;;;19.20;84.44;99568.67;1748361;82;21017;-90
2021/07/26 05:25:26;;;;;;;27.52;20.57;;;;;;;19.21;84.23;99581.84;1748588;81;20990;-89
2021/07/26 05:27:52;;;;;;;23.38;19.65;;;;;;;19.21;84.25;99575.16;1748442;81;20993;-90
2021/07/26 05:30:18;;;;;;;24.05;19.70;;;;;;;19.26;84.42;99579.14;1748595;81;20966;-90
2021/07/26 05:32:44;;;;;;;22.77;20.25;;;;;;;19.29;84.18;99574.25;1748586;82;21351;-90
2021/07/26 05:35:10;;;;;;;23.10;20.68;;;;;;;19.30;84.10;99578.57;1748641;81;21060;-90
2021/07/26 05:37:37;;;;;;;24.67;21.20;;;;;;;19.32;84.20;99575.22;1748351;82;20986;-90
2021/07/26 05:40:04;;;;;;;22.32;20.00;;;;;;;19.37;84.25;99581.33;1748642;82;20978;-90
2021/07/26 05:42:30;;;;;;;22.45;20.00;;;;;;;19.39;84.52;99581.47;1749581;81;21102;-90
2021/07/26 05:44:56;;;;;;;21.65;19.45;;;;;;;19.42;84.36;99579.77;1764104;81;21334;-90
2021/07/26 05:47:22;;;;;;;22.17;19.87;;;;;;;19.45;84.56;99583.92;1763567;81;21041;-90
2021/07/26 05:49:48;;;;;;;28.83;20.23;;;;;;;19.51;84.45;99591.69;1764053;81;20946;-90
2021/07/26 05:52:14;;;;;;;24.45;20.90;;;;;;;19.54;84.24;99592.65;1762741;81;21416;-90
2021/07/26 05:54:40;;;;;;;22.32;19.32;;;;;;;19.57;84.07;99601.64;1764066;81;21507;-90
2021/07/26 05:57:10;;;;;;;23.60;19.77;;;;;;;19.58;84.14;99600.14;1763914;81;21033;-90
2021/07/26 05:59:36;;;;;;;26.82;20.72;;;;;;;19.58;84.28;99589.95;1763294;81;20995;-90
2021/07/26 06:02:03;;;;;;;22.27;19.85;;;;;;;19.60;84.21;99594.58;1763801;81;21484;-90
2021/07/26 06:04:29;;;;;;;21.95;19.80;;;;;;;19.59;84.38;99596.95;1763975;81;21029;-90
2021/07/26 06:06:57;;;;;;;22.42;20.00;;;;;;;19.60;84.23;99599.94;1763854;81;20981;-90
2021/07/26 06:09:24;;;;;;;23.95;20.70;;;;;;;19.61;84.18;99598.42;1756863;81;21509;-90
2021/07/26 06:11:52;;;;;;;22.27;19.98;;;;;;;19.61;84.20;99603.78;1748330;81;21069;-90
2021/07/26 06:14:20;;;;;;;23.22;19.73;;;;;;;19.64;84.24;99607.94;1748676;81;20998;-90
2021/07/26 06:16:49;;;;;;;25.10;19.48;;;;;;;19.64;84.24;99611.95;1748254;82;21012;-89
2021/07/26 06:19:16;;;;;;;23.92;21.23;;;;;;;19.69;84.19;99624.27;1754202;81;21463;-89
2021/07/26 06:21:46;;;;;;;22.07;19.45;;;;;;;19.72;84.46;99615.87;1763666;81;21017;-90
2021/07/26 06:24:13;;;;;;;21.57;18.75;;;;;;;19.77;84.58;99621.98;1764311;81;21105;-89
2021/07/26 06:26:40;;;;;;;22.35;20.02;;;;;;;19.80;84.43;99622.95;1763765;81;21444;-89
2021/07/26 06:29:06;;;;;;;25.15;20.00;;;;;;;19.85;84.48;99625.91;1759437;81;20990;-90
2021/07/26 06:31:33;;;;;;;23.45;20.65;;;;;;;19.87;84.11;99630.06;1748377;81;20989;-90
2021/07/26 06:34:03;;;;;;;26.73;21.42;;;;;;;19.89;84.35;99632.02;1748351;82;21504;-89
2021/07/26 06:36:30;;;;;;;32.65;22.32;;;;;;;19.92;84.07;99630.82;1748392;81;21002;-90
2021/07/26 06:38:56;;;;;;;24.40;21.52;;;;;;;19.93;84.13;99632.47;1751688;81;20981;-90
2021/07/26 06:41:23;;;;;;;23.90;20.20;;;;;;;19.97;84.37;99632.92;1763701;81;20973;-90
2021/07/26 06:43:53;;;;;;;24.92;20.20;;;;;;;20.01;84.40;99636.91;1763803;81;20981;-90
2021/07/26 06:46:20;;;;;;;26.12;21.37;;;;;;;20.08;84.68;99644.50;1763873;81;21495;-90
2021/07/26 06:48:46;;;;;;;28.35;19.80;;;;;;;20.13;84.51;99640.20;1763852;81;21479;-90
2021/07/26 06:51:12;;;;;;;26.90;20.12;;;;;;;20.16;84.35;99643.02;1763877;81;20977;-89
2021/07/26 06:53:38;;;;;;;25.90;21.73;;;;;;;20.20;84.09;99640.27;1759686;81;21468;-90
2021/07/26 06:56:06;;;;;;;25.27;20.17;;;;;;;20.25;84.39;99631.17;1763935;81;21065;-89
2021/07/26 06:58:35;;;;;;;27.27;18.98;;;;;;;20.32;84.30;99636.59;1763718;81;21021;-90
2021/07/26 07:01:06;;;;;;;26.82;20.12;;;;;;;20.37;84.28;99640.37;1756574;81;21047;-90
2021/07/26 07:03:33;;;;;;;20.08;18.02;;;;;;;20.43;84.02;99641.43;1751566;81;21458;-89
2021/07/26 07:06:03;;;;;;;21.40;18.95;;;;;;;20.49;84.08;99639.33;1712636;84;20990;-90
2021/07/26 07:08:29;;;;;;;19.77;17.25;;;;;;;20.54;83.96;99647.66;1748495;81;21007;-89
2021/07/26 07:11:09;;;;;;;21.70;19.37;;;;;;;20.56;83.84;99645.60;1748334;82;20991;-90
2021/07/26 07:13:36;;;;;;;22.65;18.50;;;;;;;20.60;84.09;99642.05;1741336;81;20973;-89
2021/07/26 07:16:08;;;;;;;24.72;18.75;;;;;;;20.65;84.15;99648.16;1748328;81;20991;-89
2021/07/26 07:18:34;;;;;;;22.95;19.60;;;;;;;20.69;84.01;99648.91;1744323;82;21002;-90
2021/07/26 07:21:01;;;;;;;21.82;18.92;;;;;;;20.79;84.27;99644.05;1712418;83;21012;-89
2021/07/26 07:23:26;;;;;;;20.30;18.15;;;;;;;20.91;84.02;99643.53;1748123;81;20968;-90
2021/07/26 07:25:54;;;;;;;24.05;19.82;;;;;;;20.96;83.88;99640.59;1749121;81;20947;-89
2021/07/26 07:28:20;;;;;;;21.15;18.98;;;;;;;21.05;84.02;99635.89;1708833;84;21341;-90
2021/07/26 07:30:46;;;;;;;23.20;18.27;;;;;;;21.12;83.34;99639.95;1746979;81;20998;-89
2021/07/26 07:33:13;;;;;;;22.87;19.10;;;;;;;21.20;83.77;99643.84;1748278;81;21456;-89
2021/07/26 07:35:39;;;;;;;25.95;20.40;;;;;;;21.29;83.57;99648.86;1748472;82;21044;-89
2021/07/26 07:38:05;;;;;;;21.20;19.00;;;;;;;21.38;83.45;99649.53;1748390;82;21576;-89
2021/07/26 07:40:31;;;;;;;22.93;20.20;;;;;;;21.47;83.36;99650.22;1748555;82;21048;-88
2021/07/26 07:42:57;;;;;;;24.20;20.60;;;;;;;21.54;82.72;99645.70;1748264;81;20990;-90
2021/07/26 07:45:24;;;;;;;20.90;18.77;;;;;;;21.59;82.34;99657.20;1748626;81;20992;-89
2021/07/26 07:47:53;;;;;;;22.45;19.20;;;;;;;21.65;82.45;99661.75;1761356;81;21005;-90
2021/07/26 07:50:20;;;;;;;23.30;20.97;;;;;;;21.75;82.85;99664.89;1760457;81;21029;-85
2021/07/26 07:52:45;;;;;;;22.40;20.10;;;;;;;21.85;82.13;99666.72;1750898;81;20998;-85
2021/07/26 07:55:13;;;;;;;27.50;21.75;;;;;;;21.94;82.30;99662.80;1746547;81;21058;-85
2021/07/26 07:57:39;;;;;;;21.93;18.65;;;;;;;22.02;81.63;99661.81;1748153;82;21425;-84
2021/07/26 08:00:12;;;;;;;20.65;17.70;;;;;;;22.07;81.46;99662.55;1741914;81;20987;-84
2021/07/26 08:02:38;;;;;;;21.65;19.37;;;;;;;22.11;82.20;99663.78;1746420;82;21035;-84
2021/07/26 08:05:05;;;;;;;22.58;20.12;;;;;;;22.15;81.83;99663.72;1746619;82;21043;-84
2021/07/26 08:07:31;;;;;;;20.97;18.90;;;;;;;22.23;81.86;99662.20;1746546;82;22171;-84
2021/07/26 08:09:57;;;;;;;20.48;18.27;;;;;;;22.29;81.66;99661.92;1746900;82;21011;-84
2021/07/26 08:12:23;;;;;;;21.33;18.62;;;;;;;22.36;81.41;99664.92;1746567;82;21080;-86
2021/07/26 08:14:49;;;;;;;20.48;18.15;;;;;;;22.42;81.21;99669.48;1746802;82;20962;-84
2021/07/26 08:17:15;;;;;;;20.62;18.52;;;;;;;22.44;80.85;99667.92;1746534;82;21139;-84
2021/07/26 08:19:41;;;;;;;20.70;18.42;;;;;;;22.50;80.98;99670.31;1754272;81;21012;-85
2021/07/26 08:22:07;;;;;;;18.48;16.45;;;;;;;22.53;80.54;99671.25;1762239;81;20993;-84
2021/07/26 08:24:33;;;;;;;20.12;18.00;;;;;;;22.52;79.87;99676.33;1748965;81;21015;-84
2021/07/26 08:26:59;;;;;;;22.75;18.92;;;;;;;22.51;80.14;99673.30;1748198;81;20995;-84
2021/07/26 08:29:25;;;;;;;19.27;16.93;;;;;;;22.51;80.29;99677.34;1748281;81;20989;-84
2021/07/26 08:31:51;;;;;;;19.27;17.27;;;;;;;22.54;80.53;99680.96;1748222;82;21049;-85
2021/07/26 08:34:16;;;;;;;20.32;18.07;;;;;;;22.57;80.50;99680.55;1748376;82;21539;-84
2021/07/26 08:36:42;;;;;;;20.40;18.32;;;;;;;22.59;79.82;99677.16;1748119;82;20982;-84
2021/07/26 08:39:09;;;;;;;22.30;19.87;;;;;;;22.55;79.65;99677.27;1748269;82;21011;-84
2021/07/26 08:41:35;;;;;;;21.68;18.05;;;;;;;22.55;79.85;99678.61;1747919;82;21039;-85
2021/07/26 08:44:02;;;;;;;22.00;19.80;;;;;;;22.58;79.83;99683.58;1748314;81;21081;-86
2021/07/26 08:46:30;;;;;;;21.77;18.62;;;;;;;22.60;79.71;99685.00;1747999;81;21000;-85
2021/07/26 08:48:56;;;;;;;21.37;18.45;;;;;;;22.62;79.52;99684.30;1748181;82;21498;-89
2021/07/26 08:51:24;;;;;;;22.13;18.17;;;;;;;22.64;79.22;99684.11;1762350;81;21009;-85
2021/07/26 08:53:51;;;;;;;20.92;18.75;;;;;;;22.68;79.70;99684.00;1763676;81;20993;-85
2021/07/26 08:56:19;;;;;;;22.02;19.73;;;;;;;22.75;80.10;99694.23;1763744;81;20989;-85
2021/07/26 08:58:46;;;;;;;21.50;18.32;;;;;;;22.80;80.29;99692.27;1748195;81;21445;-86
2021/07/26 09:01:15;;;;;;;21.55;19.02;;;;;;;22.87;79.98;99695.28;1748086;81;21453;-86
2021/07/26 09:03:41;;;;;;;20.15;18.10;;;;;;;22.99;80.52;99704.09;1748575;81;21476;-86
2021/07/26 09:06:08;;;;;;;21.12;18.05;;;;;;;23.09;78.73;99703.16;1712650;83;21089;-87
2021/07/26 09:08:38;;;;;;;20.52;18.40;;;;;;;23.20;78.71;99699.86;1748146;81;21500;-86
2021/07/26 09:11:06;;;;;;;21.82;18.48;;;;;;;23.33;78.14;99695.80;1748172;82;21018;-84
2021/07/26 09:13:44;;;;;;;22.55;18.42;;;;;;;23.45;78.30;99684.38;1712456;84;21009;-88
2021/07/26 09:16:21;;;;;;;20.37;18.25;;;;;;;23.62;78.72;99690.95;1747840;81;21094;-87
2021/07/26 09:19:03;;;;;;;21.62;19.40;;;;;;;23.79;78.00;99686.81;1747683;81;21194;-85
2021/07/26 09:21:50;;;;;;;;;;;;;;;23.92;76.87;99685.08;1753899;81;21310;-85
2021/07/26 09:24:26;;;;;;;21.57;17.05;;;;;;;23.97;76.58;99689.32;1737000;82;20431;-84
2021/07/26 09:26:53;;;;;;;17.67;15.70;;;;;;;23.99;76.43;99693.98;1724948;82;20969;-84
2021/07/26 09:29:30;;;;;;;20.12;18.02;;;;;;;24.08;75.66;99697.54;1724343;81;20977;-85
2021/07/26 09:31:59;;;;;;;19.40;17.00;;;;;;;24.15;76.04;99687.25;1747749;82;21042;-84
2021/07/26 09:34:25;;;;;;;22.25;17.85;;;;;;;24.21;75.95;99691.26;1748057;81;21031;-84
2021/07/26 09:36:51;;;;;;;20.27;18.17;;;;;;;24.28;75.65;99688.53;1748220;81;21001;-85
2021/07/26 09:39:30;;;;;;;19.10;17.30;;;;;;;24.40;75.66;99688.68;1750458;81;21017;-85
2021/07/26 09:42:01;;;;;;;18.77;16.80;;;;;;;24.51;76.01;99694.75;1752884;81;21009;-84
2021/07/26 09:44:29;;;;;;;19.65;17.55;;;;;;;24.68;74.92;99699.94;1725537;81;21028;-85
2021/07/26 09:47:19;;;;;;;19.87;17.17;;;;;;;24.77;74.56;99687.81;1718444;83;21017;-85
2021/07/26 09:49:45;;;;;;;17.73;15.60;;;;;;;24.89;74.59;99696.56;1718551;83;21022;-85
2021/07/26 09:52:11;;;;;;;16.17;14.63;;;;;;;24.97;73.77;99694.39;1718302;82;21506;-85
2021/07/26 09:54:50;;;;;;;16.90;15.10;;;;;;;25.03;73.01;99691.34;1718486;82;21026;-85
2021/07/26 09:57:26;;;;;;;19.02;17.12;;;;;;;25.14;73.80;99697.42;1726304;82;21463;-86
2021/07/26 09:59:53;;;;;;;19.20;16.85;;;;;;;25.30;73.22;99693.83;1748051;81;21062;-86
2021/07/26 10:02:23;;;;;;;17.65;15.90;;;;;;;25.39;72.88;99697.89;1748038;81;21004;-85
2021/07/26 10:04:50;;;;;;;20.20;16.45;;;;;;;25.48;72.96;99694.68;1748203;81;21027;-86
2021/07/26 10:07:19;;;;;;;17.60;15.70;;;;;;;25.63;73.00;99694.83;1748061;81;20998;-88
2021/07/26 10:09:47;;;;;;;16.75;15.23;;;;;;;25.79;72.65;99696.11;1748272;81;20987;-85
2021/07/26 10:12:19;;;;;;;16.30;14.70;;;;;;;25.96;73.03;99694.47;1748072;81;20995;-84
2021/07/26 10:14:47;;;;;;;16.95;15.32;;;;;;;26.07;72.35;99696.42;1748426;82;21071;-85
2021/07/26 10:17:14;;;;;;;17.60;15.80;;;;;;;26.13;70.37;99695.51;1748247;81;20980;-85
2021/07/26 10:19:40;;;;;;;18.27;16.48;;;;;;;26.16;70.26;99704.52;1748326;81;20972;-85
2021/07/26 10:22:13;;;;;;;16.65;15.15;;;;;;;26.22;70.40;99703.29;1747894;81;21199;-85
2021/07/26 10:24:50;;;;;;;17.62;15.83;;;;;;;26.32;69.76;99703.03;1748161;81;20990;-85
2021/07/26 10:27:21;;;;;;;17.52;15.72;;;;;;;26.39;69.52;99702.94;1741815;81;21585;-84
2021/07/26 10:29:56;;;;;;;18.95;17.07;;;;;;;26.42;68.48;99698.42;1747540;81;21014;-85
2021/07/26 10:32:34;;;;;;;21.68;17.90;;;;;;;26.48;70.52;99704.30;1748305;81;20983;-85
2021/07/26 10:35:03;;;;;;;18.00;16.32;;;;;;;26.62;69.59;99703.06;1746575;81;21766;-88
2021/07/26 10:37:45;;;;;;;18.85;17.12;;;;;;;26.76;67.79;99701.51;1747764;82;21446;-86
2021/07/26 10:40:31;;;;;;;18.95;17.05;;;;;;;26.85;67.99;99697.38;1742381;82;21466;-87
2021/07/26 10:43:02;;;;;;;18.50;16.60;;;;;;;26.98;67.65;99703.11;1745722;82;21029;-86
2021/07/26 10:45:35;;;;;;;;;;;;;;;27.08;67.87;99700.14;1750365;81;21059;-85
2021/07/26 10:48:27;;;;;;;;;;;;;;;27.21;68.22;99700.44;1750573;82;20124;-86
2021/07/26 10:50:54;;;;;;;18.17;16.17;;;;;;;27.25;66.57;99700.83;1745840;82;20140;-85
2021/07/26 10:53:40;;;;;;;18.23;16.50;;;;;;;27.24;67.18;99692.38;1747901;81;20964;-85
2021/07/26 10:56:13;;;;;;;19.75;17.87;;;;;;;27.29;67.06;99696.04;1740784;82;21007;-86
2021/07/26 10:58:44;;;;;;;18.45;16.65;;;;;;;27.40;67.57;99699.80;1747984;81;21032;-85
2021/07/26 11:01:28;;;;;;;18.77;16.50;;;;;;;27.45;66.64;99699.92;1750911;81;20955;-86
2021/07/26 11:03:56;;;;;;;20.95;18.00;;;;;;;27.49;66.51;99694.31;1741607;81;21041;-86
2021/07/26 11:06:42;;;;;;;20.15;18.23;;;;;;;27.60;67.29;99690.75;1740628;82;21081;-86
2021/07/26 11:09:34;;;;;;;19.90;18.10;;;;;;;27.73;67.12;99692.38;1748155;82;21527;-85
2021/07/26 11:12:02;;;;;;;19.23;17.37;;;;;;;27.89;68.07;99692.20;1710898;84;21068;-88
2021/07/26 11:14:28;;;;;;;18.55;16.60;;;;;;;27.99;64.63;99691.05;1746834;82;21050;-85
2021/07/26 11:17:11;;;;;;;17.92;16.12;;;;;;;28.00;63.68;99683.23;1746469;82;21094;-87
2021/07/26 11:19:43;;;;;;;17.55;15.75;;;;;;;28.14;64.76;99680.23;1745439;82;21000;-88
2021/07/26 11:22:21;;;;;;;19.17;17.50;;;;;;;28.25;63.17;99677.45;1746943;82;21028;-88
2021/07/26 11:24:50;;;;;;;18.85;17.15;;;;;;;28.32;64.47;99675.94;1748384;81;21031;-86